createdAt,value
2022-10-17T00:03:37.990Z,408.30
2022-10-17T00:09:09.711Z,408.48
2022-10-17T00:14:41.557Z,408.30
2022-10-17T00:20:13.362Z,408.13
2022-10-17T00:25:45.151Z,407.61
2022-10-17T00:31:16.643Z,407.61
2022-10-17T00:36:48.931Z,407.44
2022-10-17T00:42:20.653Z,407.26
2022-10-17T00:47:52.198Z,407.26
2022-10-17T00:53:24.184Z,406.74
2022-10-17T00:58:56.112Z,406.48
2022-10-17T01:15:34.007Z,406.92
2022-10-17T01:21:06.007Z,406.74
2022-10-17T01:26:38.202Z,406.92
2022-10-17T01:32:10.491Z,407.26
2022-10-17T01:37:42.588Z,407.09
2022-10-17T01:43:14.255Z,406.74
2022-10-17T01:48:46.303Z,406.66
2022-10-17T01:54:18.456Z,406.92
2022-10-17T01:59:50.181Z,407.09
2022-10-17T02:05:21.917Z,407.44
2022-10-17T02:10:53.795Z,407.96
2022-10-17T02:16:25.505Z,407.78
2022-10-17T02:21:57.442Z,407.96
2022-10-17T02:27:29.235Z,408.13
2022-10-17T02:33:00.948Z,408.30
2022-10-17T02:38:32.945Z,407.96
2022-10-17T02:44:05.297Z,407.44
2022-10-17T02:55:09.675Z,407.09
2022-10-17T03:00:41.478Z,406.66
2022-10-17T03:06:13.145Z,406.48
2022-10-17T03:11:45.106Z,406.31
2022-10-17T03:17:17.428Z,405.97
2022-10-17T03:22:49.454Z,405.79
2022-10-17T03:28:21.106Z,405.62
2022-10-17T03:33:53.074Z,405.10
2022-10-17T03:39:25.021Z,405.27
2022-10-17T03:44:57.666Z,404.93
2022-10-17T03:50:29.338Z,405.27
2022-10-17T03:56:00.946Z,405.27
2022-10-17T04:01:32.959Z,405.27
2022-10-17T04:07:04.448Z,405.10
2022-10-17T04:12:36.509Z,404.93
2022-10-17T04:18:08.410Z,404.58
2022-10-17T04:23:40.517Z,404.23
2022-10-17T04:29:12.688Z,403.71
2022-10-17T04:34:44.419Z,403.20
2022-10-17T04:40:16.987Z,403.02
2022-10-17T04:45:49.182Z,402.85
2022-10-17T04:51:23.315Z,402.68
2022-10-17T04:56:53.542Z,402.59
2022-10-17T05:02:25.948Z,402.24
2022-10-17T05:07:58.126Z,402.07
2022-10-17T05:13:30.357Z,401.72
2022-10-17T05:19:02.362Z,401.72
2022-10-17T05:35:39.187Z,399.65
2022-10-17T05:41:11.444Z,399.30
2022-10-17T05:46:43.352Z,398.95
2022-10-17T05:52:15.017Z,398.78
2022-10-17T05:57:47.135Z,398.52
2022-10-17T06:03:19.262Z,398.35
2022-10-17T06:08:51.301Z,398.18
2022-10-17T06:14:23.405Z,397.83
2022-10-17T06:19:55.325Z,397.14
2022-10-17T06:25:27.686Z,397.14
2022-10-17T06:31:00.022Z,396.97
2022-10-17T06:36:32.146Z,396.62
2022-10-17T06:42:04.548Z,396.27
2022-10-17T06:47:36.442Z,395.93
2022-10-17T06:53:08.625Z,395.41
2022-10-17T06:58:40.542Z,395.06
2022-10-17T07:04:12.316Z,394.54
2022-10-17T07:09:43.868Z,393.51
2022-10-17T07:15:15.755Z,392.90
2022-10-17T07:20:47.633Z,392.21
2022-10-17T07:31:49.396Z,391.00
2022-10-17T07:37:21.702Z,390.31
2022-10-17T07:42:54.031Z,390.31
2022-10-17T07:48:26.103Z,389.79
2022-10-17T07:53:57.799Z,389.79
2022-10-17T07:59:30.200Z,389.79
2022-10-17T08:05:01.982Z,389.79
2022-10-17T08:10:33.817Z,389.61
2022-10-17T08:16:06.087Z,389.44
2022-10-17T08:21:38.458Z,389.79
2022-10-17T08:27:10.722Z,389.61
2022-10-17T08:32:42.782Z,389.61
2022-10-17T08:38:15.257Z,389.61
2022-10-17T08:43:48.058Z,389.44
2022-10-17T08:49:20.000Z,389.27
2022-10-17T08:51:31.815Z,389.44
2022-10-17T08:57:03.826Z,389.44
2022-10-17T09:02:35.690Z,389.61
2022-10-17T09:08:07.283Z,389.27
2022-10-17T09:13:39.097Z,389.44
2022-10-17T09:19:10.921Z,389.79
2022-10-17T09:24:42.950Z,389.27
2022-10-17T09:35:44.616Z,389.01
2022-10-17T09:41:42.923Z,388.84
2022-10-17T09:46:48.319Z,389.01
2022-10-17T09:52:20.127Z,389.01
2022-10-17T09:57:51.711Z,388.66
2022-10-17T10:03:23.950Z,388.49
2022-10-17T10:08:55.963Z,388.32
2022-10-17T10:14:27.640Z,387.97
2022-10-17T10:19:59.761Z,388.32
2022-10-17T10:25:31.203Z,388.49
2022-10-17T10:31:02.532Z,388.49
2022-10-17T10:36:34.341Z,388.32
2022-10-17T10:42:05.930Z,388.49
2022-10-17T10:47:37.814Z,388.32
2022-10-17T10:53:09.675Z,388.49
2022-10-17T11:04:10.776Z,388.66
2022-10-17T11:09:42.683Z,389.18
2022-10-17T11:15:14.565Z,389.27
2022-10-17T11:20:46.371Z,389.79
2022-10-17T11:26:18.415Z,389.61
2022-10-17T11:31:49.742Z,389.96
2022-10-17T11:37:21.594Z,389.96
2022-10-17T11:42:53.591Z,390.31
2022-10-17T11:48:25.136Z,390.65
2022-10-17T11:53:56.911Z,390.48
2022-10-17T11:59:29.864Z,390.65
2022-10-17T12:05:00.651Z,390.82
2022-10-17T12:10:32.339Z,391.17
2022-10-17T12:16:04.017Z,391.34
2022-10-17T12:21:35.662Z,391.69
2022-10-17T12:27:07.426Z,391.52
2022-10-17T12:33:00.320Z,391.86
2022-10-17T12:38:10.900Z,391.69
2022-10-17T12:43:44.802Z,392.38
2022-10-17T12:49:15.289Z,392.38
2022-10-17T12:54:48.109Z,392.38
2022-10-17T13:00:18.623Z,392.73
2022-10-17T13:05:50.450Z,392.38
2022-10-17T13:16:53.684Z,392.21
2022-10-17T13:27:55.441Z,392.73
2022-10-17T13:33:27.109Z,392.38
2022-10-17T13:41:36.253Z,392.38
2022-10-17T13:46:50.925Z,392.55
2022-10-17T13:52:22.866Z,392.38
2022-10-17T14:03:24.004Z,392.73
2022-10-17T14:08:56.314Z,392.73
2022-10-17T14:14:27.945Z,392.90
2022-10-17T14:20:16.424Z,392.38
2022-10-17T14:25:32.054Z,392.55
2022-10-17T14:31:03.770Z,392.38
2022-10-17T14:36:35.786Z,392.04
2022-10-17T14:42:07.851Z,391.86
2022-10-17T14:47:43.701Z,391.69
2022-10-17T14:53:11.363Z,391.34
2022-10-17T14:58:42.929Z,391.17
2022-10-17T15:04:14.778Z,391.00
2022-10-17T15:09:46.742Z,391.00
2022-10-17T15:20:55.220Z,390.82
2022-10-17T15:26:20.406Z,390.31
2022-10-17T15:31:52.348Z,390.31
2022-10-17T15:37:24.136Z,389.96
2022-10-17T15:42:55.748Z,389.61
2022-10-17T15:48:27.667Z,389.79
2022-10-17T15:53:59.522Z,389.44
2022-10-17T15:59:31.520Z,389.01
2022-10-17T16:05:04.364Z,388.66
2022-10-17T16:10:35.953Z,388.32
2022-10-17T16:16:07.877Z,387.80
2022-10-17T16:27:09.412Z,387.11
2022-10-17T16:32:41.093Z,386.59
2022-10-17T16:43:44.027Z,386.07
2022-10-17T16:49:15.724Z,385.73
2022-10-17T16:54:47.668Z,385.21
2022-10-17T17:05:49.426Z,384.43
2022-10-17T17:11:21.296Z,383.74
2022-10-17T17:16:53.530Z,383.39
2022-10-17T17:22:25.472Z,382.87
2022-10-17T17:27:57.509Z,382.36
2022-10-17T17:33:29.237Z,382.18
2022-10-17T17:39:01.057Z,381.66
2022-10-17T17:44:32.656Z,381.15
2022-10-17T17:50:04.724Z,380.80
2022-10-17T17:55:36.946Z,380.63
2022-10-17T18:01:08.655Z,380.46
2022-10-17T18:06:40.536Z,380.20
2022-10-17T18:12:12.653Z,380.20
2022-10-17T18:17:44.853Z,380.02
2022-10-17T18:23:16.550Z,379.51
2022-10-17T18:28:48.598Z,379.68
2022-10-17T18:34:20.602Z,379.51
2022-10-17T18:39:52.336Z,379.51
2022-10-17T18:45:24.244Z,379.51
2022-10-17T18:50:55.805Z,378.99
2022-10-17T18:56:27.669Z,379.16
2022-10-17T19:01:59.829Z,378.99
2022-10-17T19:07:31.892Z,378.81
2022-10-17T19:13:04.095Z,378.99
2022-10-17T19:18:36.361Z,378.64
2022-10-17T19:24:08.529Z,378.81
2022-10-17T19:29:40.768Z,378.64
2022-10-17T19:35:12.834Z,378.99
2022-10-17T19:40:44.875Z,378.81
2022-10-17T19:46:16.465Z,378.81
2022-10-17T19:51:48.425Z,378.30
2022-10-17T20:02:50.112Z,377.26
2022-10-17T20:08:22.051Z,377.26
2022-10-17T20:13:53.834Z,376.74
2022-10-17T20:19:25.469Z,376.74
2022-10-17T20:24:57.287Z,376.74
2022-10-17T20:30:29.466Z,376.31
2022-10-17T20:36:01.238Z,376.40
2022-10-17T20:41:33.558Z,375.97
2022-10-17T20:47:11.897Z,375.97
2022-10-17T20:52:37.523Z,375.79
2022-10-17T20:58:09.625Z,375.79
2022-10-17T21:03:44.053Z,375.97
2022-10-17T21:09:12.893Z,375.62
2022-10-17T21:14:44.875Z,375.45
2022-10-17T21:20:16.681Z,375.79
2022-10-17T21:25:48.478Z,375.79
2022-10-17T21:31:20.061Z,375.79
2022-10-17T21:36:51.893Z,375.79
2022-10-17T21:42:23.558Z,375.97
2022-10-17T21:48:12.206Z,376.31
2022-10-17T21:53:27.077Z,375.79
2022-10-17T21:58:58.887Z,375.97
2022-10-17T22:04:30.757Z,375.97
2022-10-17T22:10:02.842Z,376.31
2022-10-17T22:15:35.258Z,376.31
2022-10-17T22:21:07.115Z,375.97
2022-10-17T22:26:38.982Z,376.14
2022-10-17T22:32:10.880Z,376.31
2022-10-17T22:37:42.696Z,375.97
2022-10-17T22:43:14.484Z,375.79
2022-10-17T22:48:46.128Z,375.97
2022-10-17T22:54:17.881Z,375.62
2022-10-17T22:59:49.722Z,375.27
2022-10-17T23:05:21.599Z,375.62
2022-10-17T23:10:53.220Z,375.45
2022-10-17T23:13:16.778Z,375.45
2022-10-17T23:18:48.510Z,375.62
2022-10-17T23:24:19.859Z,375.27
2022-10-17T23:29:51.356Z,375.79
2022-10-17T23:35:22.994Z,376.14
2022-10-17T23:40:55.097Z,376.14
2022-10-17T23:46:26.720Z,376.40
2022-10-17T23:51:58.584Z,376.40
2022-10-17T23:57:30.639Z,376.57
